createdAt,value
2023-05-05T00:18:20.047Z,75.23
2023-05-05T00:47:15.975Z,76.06
2023-05-05T01:16:10.508Z,76.35
2023-05-05T01:45:06.128Z,77.92
2023-05-05T02:14:09.954Z,77.98
2023-05-05T02:43:11.269Z,77.5
2023-05-05T03:12:05.851Z,76.23
2023-05-05T03:41:12.161Z,74.98
2023-05-05T04:10:16.346Z,72.71
2023-05-05T04:39:22.020Z,71.31
2023-05-05T05:08:19.095Z,75.8
2023-05-05T05:37:28.163Z,74.13
2023-05-05T06:06:23.166Z,76.3
2023-05-05T06:35:28.858Z,75.66
2023-05-05T07:04:30.331Z,72.11
2023-05-05T07:33:17.755Z,79.14
2023-05-05T08:02:12.015Z,82.19
2023-05-05T08:31:12.366Z,78.32
2023-05-05T09:00:05.851Z,77.03
2023-05-05T09:29:25.585Z,64.22
2023-05-05T09:58:34.664Z,60.01
2023-05-05T10:27:13.396Z,55.75
2023-05-05T10:56:28.280Z,50.4
2023-05-05T11:25:02.732Z,55
2023-05-05T11:54:23.301Z,48.37
2023-05-05T12:23:10.071Z,50.2
2023-05-05T12:51:49.758Z,54.04
2023-05-05T13:20:47.911Z,65.92
2023-05-05T13:49:45.531Z,65.27
2023-05-05T14:18:17.523Z,72.33
2023-05-05T14:46:57.067Z,89.25
2023-05-05T15:15:46.762Z,96.19
2023-05-05T15:44:26.126Z,99.32
2023-05-05T16:13:19.010Z,97.21
2023-05-05T16:42:01.769Z,98.95
2023-05-05T17:10:56.034Z,92.94
2023-05-05T17:39:38.296Z,91.3
2023-05-05T18:08:38.856Z,95.34
2023-05-05T18:37:30.313Z,96.19
2023-05-05T19:05:41.097Z,100
2023-05-05T19:34:03.477Z,100
2023-05-05T20:02:16.694Z,100
2023-05-05T20:30:31.365Z,100
2023-05-05T20:58:51.607Z,100
2023-05-05T21:27:16.720Z,100
2023-05-05T21:55:36.328Z,100
2023-05-05T22:23:52.591Z,100
2023-05-05T22:52:15.760Z,100
2023-05-05T23:20:32.364Z,100
2023-05-05T23:48:55.402Z,100
